sensor_id;sensor_type;location;lat;lon;timestamp;P1;durP1;ratioP1;P2;durP2;ratioP2
2462;SDS011;1243;54.298;10.172;2023-02-13T00:02:07;7.20;;;5.83;;
2462;SDS011;1243;54.298;10.172;2023-02-13T00:04:33;11.70;;;7.40;;
2462;SDS011;1243;54.298;10.172;2023-02-13T00:06:59;8.30;;;6.40;;
2462;SDS011;1243;54.298;10.172;2023-02-13T00:09:25;8.43;;;6.10;;
2462;SDS011;1243;54.298;10.172;2023-02-13T00:11:51;9.70;;;7.20;;
2462;SDS011;1243;54.298;10.172;2023-02-13T00:14:17;9.17;;;6.20;;
2462;SDS011;1243;54.298;10.172;2023-02-13T00:16:43;9.20;;;7.00;;
2462;SDS011;1243;54.298;10.172;2023-02-13T00:19:08;8.40;;;6.77;;
2462;SDS011;1243;54.298;10.172;2023-02-13T00:21:34;8.57;;;6.23;;
2462;SDS011;1243;54.298;10.172;2023-02-13T00:24:00;7.80;;;7.00;;
2462;SDS011;1243;54.298;10.172;2023-02-13T00:26:25;7.73;;;5.80;;
2462;SDS011;1243;54.298;10.172;2023-02-13T00:28:51;10.07;;;7.53;;
2462;SDS011;1243;54.298;10.172;2023-02-13T00:31:18;10.17;;;7.23;;
2462;SDS011;1243;54.298;10.172;2023-02-13T00:33:45;9.97;;;7.10;;
2462;SDS011;1243;54.298;10.172;2023-02-13T00:36:15;9.23;;;6.00;;
2462;SDS011;1243;54.298;10.172;2023-02-13T00:38:42;9.00;;;6.80;;
2462;SDS011;1243;54.298;10.172;2023-02-13T00:41:09;9.60;;;7.13;;
2462;SDS011;1243;54.298;10.172;2023-02-13T00:43:35;13.37;;;7.37;;
2462;SDS011;1243;54.298;10.172;2023-02-13T00:46:01;9.10;;;5.73;;
2462;SDS011;1243;54.298;10.172;2023-02-13T00:48:28;9.80;;;7.33;;
2462;SDS011;1243;54.298;10.172;2023-02-13T00:50:54;8.47;;;6.13;;
2462;SDS011;1243;54.298;10.172;2023-02-13T00:53:21;8.37;;;7.20;;
2462;SDS011;1243;54.298;10.172;2023-02-13T00:55:48;12.40;;;7.17;;
2462;SDS011;1243;54.298;10.172;2023-02-13T00:58:14;7.93;;;6.17;;
2462;SDS011;1243;54.298;10.172;2023-02-13T01:00:41;12.10;;;6.80;;
2462;SDS011;1243;54.298;10.172;2023-02-13T01:03:07;10.00;;;6.70;;
2462;SDS011;1243;54.298;10.172;2023-02-13T01:05:33;11.73;;;6.77;;
2462;SDS011;1243;54.298;10.172;2023-02-13T01:07:59;10.73;;;6.57;;
2462;SDS011;1243;54.298;10.172;2023-02-13T01:10:25;11.33;;;6.90;;
2462;SDS011;1243;54.298;10.172;2023-02-13T01:12:51;12.03;;;6.27;;
2462;SDS011;1243;54.298;10.172;2023-02-13T01:15:17;7.13;;;6.43;;
2462;SDS011;1243;54.298;10.172;2023-02-13T01:17:44;11.47;;;7.60;;
2462;SDS011;1243;54.298;10.172;2023-02-13T01:20:11;8.30;;;6.77;;
2462;SDS011;1243;54.298;10.172;2023-02-13T01:22:37;10.33;;;6.80;;
2462;SDS011;1243;54.298;10.172;2023-02-13T01:25:04;6.90;;;6.10;;
2462;SDS011;1243;54.298;10.172;2023-02-13T01:27:30;7.80;;;5.87;;
2462;SDS011;1243;54.298;10.172;2023-02-13T01:29:57;7.20;;;5.77;;
2462;SDS011;1243;54.298;10.172;2023-02-13T01:32:23;10.40;;;6.90;;
2462;SDS011;1243;54.298;10.172;2023-02-13T01:34:49;9.53;;;6.90;;
2462;SDS011;1243;54.298;10.172;2023-02-13T01:37:14;7.90;;;6.50;;
2462;SDS011;1243;54.298;10.172;2023-02-13T01:39:40;9.57;;;6.47;;
2462;SDS011;1243;54.298;10.172;2023-02-13T01:42:14;7.53;;;6.27;;
2462;SDS011;1243;54.298;10.172;2023-02-13T01:44:51;10.60;;;6.53;;
2462;SDS011;1243;54.298;10.172;2023-02-13T01:52:44;9.00;;;6.50;;
2462;SDS011;1243;54.298;10.172;2023-02-13T01:55:16;7.07;;;5.80;;
2462;SDS011;1243;54.298;10.172;2023-02-13T01:57:43;8.63;;;6.67;;
2462;SDS011;1243;54.298;10.172;2023-02-13T02:00:15;6.60;;;6.00;;
2462;SDS011;1243;54.298;10.172;2023-02-13T02:02:48;6.10;;;5.50;;
2462;SDS011;1243;54.298;10.172;2023-02-13T02:05:17;9.87;;;5.83;;
2462;SDS011;1243;54.298;10.172;2023-02-13T02:07:46;9.30;;;5.63;;
2462;SDS011;1243;54.298;10.172;2023-02-13T02:10:16;7.20;;;6.20;;
2462;SDS011;1243;54.298;10.172;2023-02-13T02:12:54;7.37;;;6.10;;
2462;SDS011;1243;54.298;10.172;2023-02-13T02:15:27;7.80;;;6.00;;
2462;SDS011;1243;54.298;10.172;2023-02-13T02:17:53;5.87;;;5.20;;
2462;SDS011;1243;54.298;10.172;2023-02-13T02:20:38;7.23;;;6.17;;
2462;SDS011;1243;54.298;10.172;2023-02-13T02:45:52;9.23;;;6.30;;
2462;SDS011;1243;54.298;10.172;2023-02-13T02:48:31;8.30;;;5.80;;
2462;SDS011;1243;54.298;10.172;2023-02-13T02:51:25;7.27;;;5.70;;
2462;SDS011;1243;54.298;10.172;2023-02-13T02:54:07;6.90;;;6.03;;
2462;SDS011;1243;54.298;10.172;2023-02-13T02:57:23;7.40;;;5.60;;
2462;SDS011;1243;54.298;10.172;2023-02-13T03:00:12;8.07;;;6.50;;
2462;SDS011;1243;54.298;10.172;2023-02-13T03:02:57;7.33;;;5.77;;
2462;SDS011;1243;54.298;10.172;2023-02-13T03:05:41;7.00;;;5.43;;
2462;SDS011;1243;54.298;10.172;2023-02-13T03:08:29;10.23;;;6.03;;
2462;SDS011;1243;54.298;10.172;2023-02-13T03:11:13;10.70;;;6.23;;
2462;SDS011;1243;54.298;10.172;2023-02-13T03:13:57;8.20;;;6.07;;
2462;SDS011;1243;54.298;10.172;2023-02-13T03:16:27;9.33;;;5.57;;
2462;SDS011;1243;54.298;10.172;2023-02-13T03:19:12;6.63;;;5.97;;
2462;SDS011;1243;54.298;10.172;2023-02-13T03:22:20;7.20;;;6.40;;
2462;SDS011;1243;54.298;10.172;2023-02-13T03:34:13;6.80;;;5.27;;
2462;SDS011;1243;54.298;10.172;2023-02-13T03:39:55;7.53;;;6.10;;
2462;SDS011;1243;54.298;10.172;2023-02-13T03:43:14;6.57;;;5.83;;
2462;SDS011;1243;54.298;10.172;2023-02-13T03:45:31;9.00;;;5.73;;
2462;SDS011;1243;54.298;10.172;2023-02-13T03:48:24;6.93;;;5.00;;
2462;SDS011;1243;54.298;10.172;2023-02-13T03:51:13;7.90;;;5.27;;
2462;SDS011;1243;54.298;10.172;2023-02-13T03:53:57;7.80;;;6.20;;
2462;SDS011;1243;54.298;10.172;2023-02-13T03:56:26;12.77;;;6.77;;
2462;SDS011;1243;54.298;10.172;2023-02-13T03:59:23;8.07;;;6.40;;
2462;SDS011;1243;54.298;10.172;2023-02-13T04:04:39;7.87;;;6.27;;
2462;SDS011;1243;54.298;10.172;2023-02-13T04:07:13;11.27;;;6.80;;
2462;SDS011;1243;54.298;10.172;2023-02-13T04:09:53;11.43;;;6.90;;
2462;SDS011;1243;54.298;10.172;2023-02-13T04:15:16;8.03;;;6.47;;
2462;SDS011;1243;54.298;10.172;2023-02-13T04:17:45;11.60;;;7.43;;
2462;SDS011;1243;54.298;10.172;2023-02-13T04:20:27;9.37;;;7.20;;
2462;SDS011;1243;54.298;10.172;2023-02-13T04:22:55;10.60;;;8.00;;
2462;SDS011;1243;54.298;10.172;2023-02-13T04:25:20;7.97;;;6.90;;
2462;SDS011;1243;54.298;10.172;2023-02-13T04:27:46;17.77;;;8.73;;
2462;SDS011;1243;54.298;10.172;2023-02-13T04:30:12;11.10;;;8.17;;
2462;SDS011;1243;54.298;10.172;2023-02-13T04:32:38;9.83;;;8.53;;
2462;SDS011;1243;54.298;10.172;2023-02-13T04:35:04;10.23;;;8.10;;
2462;SDS011;1243;54.298;10.172;2023-02-13T04:37:30;10.83;;;8.80;;
2462;SDS011;1243;54.298;10.172;2023-02-13T04:39:55;9.87;;;8.00;;
2462;SDS011;1243;54.298;10.172;2023-02-13T04:42:21;13.20;;;9.20;;
2462;SDS011;1243;54.298;10.172;2023-02-13T04:44:47;14.30;;;9.53;;
2462;SDS011;1243;54.298;10.172;2023-02-13T04:47:12;11.03;;;9.10;;
2462;SDS011;1243;54.298;10.172;2023-02-13T04:49:38;9.03;;;7.73;;
2462;SDS011;1243;54.298;10.172;2023-02-13T04:52:04;11.33;;;8.57;;
2462;SDS011;1243;54.298;10.172;2023-02-13T04:54:29;9.33;;;8.07;;
2462;SDS011;1243;54.298;10.172;2023-02-13T04:56:55;12.60;;;8.83;;
2462;SDS011;1243;54.298;10.172;2023-02-13T04:59:21;11.30;;;8.23;;
2462;SDS011;1243;54.298;10.172;2023-02-13T05:01:46;12.00;;;9.33;;
2462;SDS011;1243;54.298;10.172;2023-02-13T05:04:12;13.03;;;9.20;;
2462;SDS011;1243;54.298;10.172;2023-02-13T05:06:40;12.10;;;8.83;;
2462;SDS011;1243;54.298;10.172;2023-02-13T05:09:06;11.73;;;9.03;;
2462;SDS011;1243;54.298;10.172;2023-02-13T05:11:32;14.23;;;9.47;;
2462;SDS011;1243;54.298;10.172;2023-02-13T05:13:57;14.40;;;9.30;;
2462;SDS011;1243;54.298;10.172;2023-02-13T05:16:23;14.10;;;10.20;;
2462;SDS011;1243;54.298;10.172;2023-02-13T05:18:49;12.80;;;10.27;;
2462;SDS011;1243;54.298;10.172;2023-02-13T05:21:18;14.00;;;10.20;;
2462;SDS011;1243;54.298;10.172;2023-02-13T05:24:03;14.60;;;9.87;;
2462;SDS011;1243;54.298;10.172;2023-02-13T05:26:29;15.10;;;10.13;;
2462;SDS011;1243;54.298;10.172;2023-02-13T05:28:55;14.43;;;10.17;;
2462;SDS011;1243;54.298;10.172;2023-02-13T05:31:39;17.97;;;11.10;;
2462;SDS011;1243;54.298;10.172;2023-02-13T05:34:05;24.23;;;10.90;;
2462;SDS011;1243;54.298;10.172;2023-02-13T05:36:31;18.63;;;10.87;;
2462;SDS011;1243;54.298;10.172;2023-02-13T05:38:56;16.20;;;10.20;;
2462;SDS011;1243;54.298;10.172;2023-02-13T05:41:22;18.00;;;10.40;;
2462;SDS011;1243;54.298;10.172;2023-02-13T05:43:48;15.13;;;10.03;;
2462;SDS011;1243;54.298;10.172;2023-02-13T05:46:13;15.80;;;10.50;;
2462;SDS011;1243;54.298;10.172;2023-02-13T05:48:39;16.37;;;10.50;;
2462;SDS011;1243;54.298;10.172;2023-02-13T05:51:05;11.70;;;9.73;;
2462;SDS011;1243;54.298;10.172;2023-02-13T05:53:31;16.00;;;11.20;;
2462;SDS011;1243;54.298;10.172;2023-02-13T05:55:59;12.03;;;9.53;;
2462;SDS011;1243;54.298;10.172;2023-02-13T05:58:26;15.37;;;10.53;;
2462;SDS011;1243;54.298;10.172;2023-02-13T06:00:54;17.60;;;11.02;;
2462;SDS011;1243;54.298;10.172;2023-02-13T06:03:22;15.10;;;11.73;;
2462;SDS011;1243;54.298;10.172;2023-02-13T06:05:48;12.93;;;10.00;;
2462;SDS011;1243;54.298;10.172;2023-02-13T06:08:13;17.67;;;11.57;;
2462;SDS011;1243;54.298;10.172;2023-02-13T06:10:39;13.90;;;10.30;;
2462;SDS011;1243;54.298;10.172;2023-02-13T06:13:05;15.13;;;11.20;;
2462;SDS011;1243;54.298;10.172;2023-02-13T06:15:30;15.80;;;10.80;;
2462;SDS011;1243;54.298;10.172;2023-02-13T06:17:56;13.97;;;10.47;;
2462;SDS011;1243;54.298;10.172;2023-02-13T06:20:22;16.07;;;10.80;;
2462;SDS011;1243;54.298;10.172;2023-02-13T06:22:48;10.37;;;9.03;;
2462;SDS011;1243;54.298;10.172;2023-02-13T06:25:15;13.10;;;10.13;;
2462;SDS011;1243;54.298;10.172;2023-02-13T06:27:41;18.50;;;10.63;;
2462;SDS011;1243;54.298;10.172;2023-02-13T06:30:07;15.90;;;11.60;;
2462;SDS011;1243;54.298;10.172;2023-02-13T06:32:33;13.80;;;10.60;;
2462;SDS011;1243;54.298;10.172;2023-02-13T06:34:59;13.87;;;10.13;;
2462;SDS011;1243;54.298;10.172;2023-02-13T06:37:25;15.83;;;10.93;;
2462;SDS011;1243;54.298;10.172;2023-02-13T06:39:50;14.13;;;10.00;;
2462;SDS011;1243;54.298;10.172;2023-02-13T06:42:16;17.43;;;11.53;;
2462;SDS011;1243;54.298;10.172;2023-02-13T06:44:42;18.70;;;11.83;;
2462;SDS011;1243;54.298;10.172;2023-02-13T06:47:08;13.70;;;11.17;;
2462;SDS011;1243;54.298;10.172;2023-02-13T06:49:34;15.37;;;10.00;;
2462;SDS011;1243;54.298;10.172;2023-02-13T06:52:00;15.50;;;10.30;;
2462;SDS011;1243;54.298;10.172;2023-02-13T06:54:26;14.10;;;11.63;;
2462;SDS011;1243;54.298;10.172;2023-02-13T06:56:51;19.97;;;12.10;;
2462;SDS011;1243;54.298;10.172;2023-02-13T06:59:17;19.17;;;11.13;;
2462;SDS011;1243;54.298;10.172;2023-02-13T07:01:43;11.87;;;9.87;;
2462;SDS011;1243;54.298;10.172;2023-02-13T07:04:08;14.30;;;11.03;;
2462;SDS011;1243;54.298;10.172;2023-02-13T07:06:34;17.90;;;10.60;;
2462;SDS011;1243;54.298;10.172;2023-02-13T07:09:03;16.70;;;10.27;;
2462;SDS011;1243;54.298;10.172;2023-02-13T07:11:29;16.07;;;11.33;;
2462;SDS011;1243;54.298;10.172;2023-02-13T07:13:55;16.80;;;10.73;;
2462;SDS011;1243;54.298;10.172;2023-02-13T07:16:21;16.43;;;11.40;;
2462;SDS011;1243;54.298;10.172;2023-02-13T07:18:46;12.93;;;9.70;;
2462;SDS011;1243;54.298;10.172;2023-02-13T07:21:12;14.20;;;10.73;;
2462;SDS011;1243;54.298;10.172;2023-02-13T07:23:38;15.00;;;10.43;;
2462;SDS011;1243;54.298;10.172;2023-02-13T07:26:04;15.37;;;10.77;;
2462;SDS011;1243;54.298;10.172;2023-02-13T07:28:30;16.10;;;9.63;;
2462;SDS011;1243;54.298;10.172;2023-02-13T07:30:56;13.40;;;10.40;;
2462;SDS011;1243;54.298;10.172;2023-02-13T07:33:22;16.50;;;8.90;;
2462;SDS011;1243;54.298;10.172;2023-02-13T07:35:49;13.17;;;9.53;;
2462;SDS011;1243;54.298;10.172;2023-02-13T07:38:15;15.27;;;9.27;;
2462;SDS011;1243;54.298;10.172;2023-02-13T07:40:42;14.27;;;9.97;;
2462;SDS011;1243;54.298;10.172;2023-02-13T07:43:08;8.93;;;7.73;;
2462;SDS011;1243;54.298;10.172;2023-02-13T07:45:34;12.37;;;8.10;;
2462;SDS011;1243;54.298;10.172;2023-02-13T07:47:59;10.33;;;8.90;;
2462;SDS011;1243;54.298;10.172;2023-02-13T07:50:25;9.20;;;7.73;;
2462;SDS011;1243;54.298;10.172;2023-02-13T07:52:54;8.30;;;6.70;;
2462;SDS011;1243;54.298;10.172;2023-02-13T07:55:25;8.50;;;6.43;;
2462;SDS011;1243;54.298;10.172;2023-02-13T07:57:51;10.90;;;8.27;;
2462;SDS011;1243;54.298;10.172;2023-02-13T08:00:17;11.63;;;7.23;;
2462;SDS011;1243;54.298;10.172;2023-02-13T08:02:44;12.03;;;7.93;;
2462;SDS011;1243;54.298;10.172;2023-02-13T08:05:10;8.37;;;6.77;;
2462;SDS011;1243;54.298;10.172;2023-02-13T08:07:35;11.87;;;7.33;;
2462;SDS011;1243;54.298;10.172;2023-02-13T08:10:02;9.10;;;7.13;;
2462;SDS011;1243;54.298;10.172;2023-02-13T08:12:48;7.60;;;6.40;;
2462;SDS011;1243;54.298;10.172;2023-02-13T08:15:16;8.07;;;6.77;;
2462;SDS011;1243;54.298;10.172;2023-02-13T08:17:41;7.93;;;7.13;;
2462;SDS011;1243;54.298;10.172;2023-02-13T08:20:07;8.33;;;6.47;;
2462;SDS011;1243;54.298;10.172;2023-02-13T08:22:37;11.37;;;6.93;;
2462;SDS011;1243;54.298;10.172;2023-02-13T08:25:03;8.60;;;6.70;;
2462;SDS011;1243;54.298;10.172;2023-02-13T08:27:30;8.40;;;6.20;;
2462;SDS011;1243;54.298;10.172;2023-02-13T08:29:56;9.80;;;6.93;;
2462;SDS011;1243;54.298;10.172;2023-02-13T08:32:23;6.37;;;5.70;;
2462;SDS011;1243;54.298;10.172;2023-02-13T08:34:49;7.37;;;6.20;;
2462;SDS011;1243;54.298;10.172;2023-02-13T08:37:15;8.93;;;6.43;;
2462;SDS011;1243;54.298;10.172;2023-02-13T08:39:41;8.87;;;7.97;;
2462;SDS011;1243;54.298;10.172;2023-02-13T08:42:07;8.00;;;6.20;;
2462;SDS011;1243;54.298;10.172;2023-02-13T08:44:33;6.63;;;5.90;;
2462;SDS011;1243;54.298;10.172;2023-02-13T08:46:59;11.50;;;6.70;;
2462;SDS011;1243;54.298;10.172;2023-02-13T08:49:31;12.33;;;6.60;;
2462;SDS011;1243;54.298;10.172;2023-02-13T08:51:57;5.90;;;5.40;;
2462;SDS011;1243;54.298;10.172;2023-02-13T08:54:23;7.67;;;6.43;;
2462;SDS011;1243;54.298;10.172;2023-02-13T08:56:49;7.00;;;6.30;;
2462;SDS011;1243;54.298;10.172;2023-02-13T08:59:15;7.13;;;6.43;;
2462;SDS011;1243;54.298;10.172;2023-02-13T09:01:40;8.13;;;6.13;;
2462;SDS011;1243;54.298;10.172;2023-02-13T09:04:06;11.63;;;6.50;;
2462;SDS011;1243;54.298;10.172;2023-02-13T09:06:32;13.30;;;7.00;;
2462;SDS011;1243;54.298;10.172;2023-02-13T09:08:58;6.77;;;6.07;;
2462;SDS011;1243;54.298;10.172;2023-02-13T09:11:23;7.03;;;6.30;;
2462;SDS011;1243;54.298;10.172;2023-02-13T09:13:51;8.73;;;7.37;;
2462;SDS011;1243;54.298;10.172;2023-02-13T09:16:17;7.03;;;5.87;;
2462;SDS011;1243;54.298;10.172;2023-02-13T09:18:45;10.50;;;6.97;;
2462;SDS011;1243;54.298;10.172;2023-02-13T09:21:12;8.50;;;7.60;;
2462;SDS011;1243;54.298;10.172;2023-02-13T09:23:39;7.83;;;6.90;;
2462;SDS011;1243;54.298;10.172;2023-02-13T09:26:06;9.33;;;6.67;;
2462;SDS011;1243;54.298;10.172;2023-02-13T09:28:34;8.90;;;6.60;;
2462;SDS011;1243;54.298;10.172;2023-02-13T09:31:05;10.53;;;7.17;;
2462;SDS011;1243;54.298;10.172;2023-02-13T09:33:32;6.30;;;5.70;;
2462;SDS011;1243;54.298;10.172;2023-02-13T09:36:02;7.77;;;5.93;;
2462;SDS011;1243;54.298;10.172;2023-02-13T09:38:35;7.53;;;6.80;;
2462;SDS011;1243;54.298;10.172;2023-02-13T09:41:03;7.77;;;7.00;;
2462;SDS011;1243;54.298;10.172;2023-02-13T09:43:36;9.00;;;7.27;;
2462;SDS011;1243;54.298;10.172;2023-02-13T09:46:09;9.47;;;7.03;;
2462;SDS011;1243;54.298;10.172;2023-02-13T09:48:39;10.43;;;6.37;;
2462;SDS011;1243;54.298;10.172;2023-02-13T09:51:10;10.70;;;7.17;;
2462;SDS011;1243;54.298;10.172;2023-02-13T09:53:40;7.83;;;6.93;;
2462;SDS011;1243;54.298;10.172;2023-02-13T09:56:17;10.53;;;7.87;;
2462;SDS011;1243;54.298;10.172;2023-02-13T09:59:00;7.13;;;6.17;;
2462;SDS011;1243;54.298;10.172;2023-02-13T10:01:44;16.97;;;8.03;;
2462;SDS011;1243;54.298;10.172;2023-02-13T10:12:45;7.27;;;5.97;;
2462;SDS011;1243;54.298;10.172;2023-02-13T10:15:16;10.00;;;7.63;;
2462;SDS011;1243;54.298;10.172;2023-02-13T10:18:22;9.53;;;7.73;;
2462;SDS011;1243;54.298;10.172;2023-02-13T10:20:57;8.40;;;7.53;;
2462;SDS011;1243;54.298;10.172;2023-02-13T10:23:34;10.97;;;8.60;;
2462;SDS011;1243;54.298;10.172;2023-02-13T10:28:59;9.13;;;6.53;;
2462;SDS011;1243;54.298;10.172;2023-02-13T10:31:48;10.10;;;8.10;;
2462;SDS011;1243;54.298;10.172;2023-02-13T10:34:16;12.57;;;6.37;;
2462;SDS011;1243;54.298;10.172;2023-02-13T10:36:46;11.13;;;9.23;;
2462;SDS011;1243;54.298;10.172;2023-02-13T10:44:35;12.23;;;7.80;;
2462;SDS011;1243;54.298;10.172;2023-02-13T10:47:18;10.57;;;8.43;;
2462;SDS011;1243;54.298;10.172;2023-02-13T10:52:49;10.03;;;8.50;;
2462;SDS011;1243;54.298;10.172;2023-02-13T11:00:30;8.40;;;6.70;;
2462;SDS011;1243;54.298;10.172;2023-02-13T11:03:12;12.63;;;8.70;;
2462;SDS011;1243;54.298;10.172;2023-02-13T11:05:42;9.20;;;7.20;;
2462;SDS011;1243;54.298;10.172;2023-02-13T11:08:25;11.10;;;7.90;;
2462;SDS011;1243;54.298;10.172;2023-02-13T11:10:55;26.30;;;8.73;;
2462;SDS011;1243;54.298;10.172;2023-02-13T11:13:21;8.30;;;7.10;;
2462;SDS011;1243;54.298;10.172;2023-02-13T11:15:59;11.77;;;8.33;;
2462;SDS011;1243;54.298;10.172;2023-02-13T11:18:26;13.47;;;8.83;;
2462;SDS011;1243;54.298;10.172;2023-02-13T11:21:00;15.03;;;9.10;;
2462;SDS011;1243;54.298;10.172;2023-02-13T11:23:33;10.07;;;8.27;;
2462;SDS011;1243;54.298;10.172;2023-02-13T11:26:03;10.80;;;9.33;;
2462;SDS011;1243;54.298;10.172;2023-02-13T11:28:56;12.40;;;9.30;;
2462;SDS011;1243;54.298;10.172;2023-02-13T11:31:30;17.13;;;10.00;;
2462;SDS011;1243;54.298;10.172;2023-02-13T11:34:17;11.00;;;9.03;;
2462;SDS011;1243;54.298;10.172;2023-02-13T11:36:51;9.53;;;8.00;;
2462;SDS011;1243;54.298;10.172;2023-02-13T11:39:19;8.17;;;7.30;;
2462;SDS011;1243;54.298;10.172;2023-02-13T11:41:47;13.20;;;8.50;;
2462;SDS011;1243;54.298;10.172;2023-02-13T11:44:29;12.43;;;8.60;;
2462;SDS011;1243;54.298;10.172;2023-02-13T11:46:57;11.77;;;8.30;;
2462;SDS011;1243;54.298;10.172;2023-02-13T11:49:35;8.93;;;7.10;;
2462;SDS011;1243;54.298;10.172;2023-02-13T11:52:04;10.43;;;7.83;;
2462;SDS011;1243;54.298;10.172;2023-02-13T11:59:49;10.77;;;7.40;;
2462;SDS011;1243;54.298;10.172;2023-02-13T12:02:23;7.00;;;5.93;;
2462;SDS011;1243;54.298;10.172;2023-02-13T12:07:42;11.17;;;5.90;;
2462;SDS011;1243;54.298;10.172;2023-02-13T12:10:20;7.03;;;6.17;;
2462;SDS011;1243;54.298;10.172;2023-02-13T12:12:52;10.40;;;5.87;;
2462;SDS011;1243;54.298;10.172;2023-02-13T12:15:24;7.00;;;6.30;;
2462;SDS011;1243;54.298;10.172;2023-02-13T12:20:56;7.20;;;6.60;;
2462;SDS011;1243;54.298;10.172;2023-02-13T12:26:13;8.27;;;6.67;;
2462;SDS011;1243;54.298;10.172;2023-02-13T12:42:51;6.03;;;5.53;;
2462;SDS011;1243;54.298;10.172;2023-02-13T12:51:01;7.70;;;6.57;;
2462;SDS011;1243;54.298;10.172;2023-02-13T12:53:58;5.27;;;4.67;;
2462;SDS011;1243;54.298;10.172;2023-02-13T12:59:15;7.33;;;5.03;;
2462;SDS011;1243;54.298;10.172;2023-02-13T13:04:40;7.87;;;5.63;;
2462;SDS011;1243;54.298;10.172;2023-02-13T13:09:56;8.33;;;5.63;;
2462;SDS011;1243;54.298;10.172;2023-02-13T13:12:37;9.90;;;5.60;;
2462;SDS011;1243;54.298;10.172;2023-02-13T13:15:27;6.33;;;5.33;;
2462;SDS011;1243;54.298;10.172;2023-02-13T13:23:43;7.23;;;5.90;;
2462;SDS011;1243;54.298;10.172;2023-02-13T13:29:18;6.63;;;5.93;;
2462;SDS011;1243;54.298;10.172;2023-02-13T13:32:08;7.40;;;6.60;;
2462;SDS011;1243;54.298;10.172;2023-02-13T13:34:36;8.60;;;6.53;;
2462;SDS011;1243;54.298;10.172;2023-02-13T13:37:05;7.47;;;6.77;;
2462;SDS011;1243;54.298;10.172;2023-02-13T13:39:44;7.17;;;5.83;;
2462;SDS011;1243;54.298;10.172;2023-02-13T13:42:27;7.37;;;5.40;;
2462;SDS011;1243;54.298;10.172;2023-02-13T13:45:21;6.53;;;5.93;;
2462;SDS011;1243;54.298;10.172;2023-02-13T13:50:49;8.83;;;6.50;;
2462;SDS011;1243;54.298;10.172;2023-02-13T13:53:16;7.37;;;6.57;;
2462;SDS011;1243;54.298;10.172;2023-02-13T14:03:40;16.10;;;7.00;;
2462;SDS011;1243;54.298;10.172;2023-02-13T14:06:15;8.07;;;6.70;;
2462;SDS011;1243;54.298;10.172;2023-02-13T14:11:29;10.20;;;7.30;;
2462;SDS011;1243;54.298;10.172;2023-02-13T14:14:00;7.30;;;6.60;;
2462;SDS011;1243;54.298;10.172;2023-02-13T14:16:43;11.57;;;7.03;;
2462;SDS011;1243;54.298;10.172;2023-02-13T14:22:59;14.40;;;7.40;;
2462;SDS011;1243;54.298;10.172;2023-02-13T14:24:59;10.57;;;7.20;;
2462;SDS011;1243;54.298;10.172;2023-02-13T14:27:27;8.43;;;7.63;;
2462;SDS011;1243;54.298;10.172;2023-02-13T14:29:55;7.70;;;6.43;;
2462;SDS011;1243;54.298;10.172;2023-02-13T14:32:24;7.80;;;6.87;;
2462;SDS011;1243;54.298;10.172;2023-02-13T14:35:05;9.10;;;6.90;;
2462;SDS011;1243;54.298;10.172;2023-02-13T14:37:46;8.63;;;6.30;;
2462;SDS011;1243;54.298;10.172;2023-02-13T14:42:42;7.37;;;6.17;;
2462;SDS011;1243;54.298;10.172;2023-02-13T14:45:14;7.90;;;5.60;;
2462;SDS011;1243;54.298;10.172;2023-02-13T14:47:43;7.60;;;6.90;;
2462;SDS011;1243;54.298;10.172;2023-02-13T14:50:27;9.63;;;7.43;;
2462;SDS011;1243;54.298;10.172;2023-02-13T14:53:09;7.33;;;6.40;;
2462;SDS011;1243;54.298;10.172;2023-02-13T14:55:42;8.63;;;6.80;;
2462;SDS011;1243;54.298;10.172;2023-02-13T14:58:24;10.60;;;7.47;;
2462;SDS011;1243;54.298;10.172;2023-02-13T15:03:42;10.47;;;6.80;;
2462;SDS011;1243;54.298;10.172;2023-02-13T15:06:23;8.03;;;7.23;;
2462;SDS011;1243;54.298;10.172;2023-02-13T15:08:55;9.20;;;7.27;;
2462;SDS011;1243;54.298;10.172;2023-02-13T15:11:36;8.47;;;6.77;;
2462;SDS011;1243;54.298;10.172;2023-02-13T15:16:42;11.40;;;6.57;;
2462;SDS011;1243;54.298;10.172;2023-02-13T15:19:13;13.13;;;7.90;;
2462;SDS011;1243;54.298;10.172;2023-02-13T15:22:02;9.33;;;6.93;;
2462;SDS011;1243;54.298;10.172;2023-02-13T15:24:36;9.03;;;7.10;;
2462;SDS011;1243;54.298;10.172;2023-02-13T15:27:13;8.80;;;7.73;;
2462;SDS011;1243;54.298;10.172;2023-02-13T15:29:56;7.10;;;6.20;;
2462;SDS011;1243;54.298;10.172;2023-02-13T15:32:34;10.20;;;6.57;;
2462;SDS011;1243;54.298;10.172;2023-02-13T15:35:01;11.27;;;6.63;;
2462;SDS011;1243;54.298;10.172;2023-02-13T15:37:45;8.57;;;7.20;;
2462;SDS011;1243;54.298;10.172;2023-02-13T15:40:15;9.80;;;6.13;;
2462;SDS011;1243;54.298;10.172;2023-02-13T15:42:49;12.40;;;7.27;;
2462;SDS011;1243;54.298;10.172;2023-02-13T15:45:15;10.43;;;6.50;;
2462;SDS011;1243;54.298;10.172;2023-02-13T15:47:43;15.13;;;8.90;;
2462;SDS011;1243;54.298;10.172;2023-02-13T15:50:17;26.27;;;14.50;;
2462;SDS011;1243;54.298;10.172;2023-02-13T15:52:51;9.10;;;7.10;;
2462;SDS011;1243;54.298;10.172;2023-02-13T15:55:24;7.90;;;7.10;;
2462;SDS011;1243;54.298;10.172;2023-02-13T15:57:53;9.47;;;6.73;;
2462;SDS011;1243;54.298;10.172;2023-02-13T16:00:25;6.70;;;6.07;;
2462;SDS011;1243;54.298;10.172;2023-02-13T16:02:59;10.80;;;7.20;;
2462;SDS011;1243;54.298;10.172;2023-02-13T16:05:27;8.87;;;7.20;;
2462;SDS011;1243;54.298;10.172;2023-02-13T16:07:57;7.73;;;7.00;;
2462;SDS011;1243;54.298;10.172;2023-02-13T16:10:29;7.33;;;6.57;;
2462;SDS011;1243;54.298;10.172;2023-02-13T16:13:00;9.43;;;6.87;;
2462;SDS011;1243;54.298;10.172;2023-02-13T16:15:29;7.67;;;6.87;;
2462;SDS011;1243;54.298;10.172;2023-02-13T16:17:58;8.70;;;7.17;;
2462;SDS011;1243;54.298;10.172;2023-02-13T16:20:28;7.73;;;6.37;;
2462;SDS011;1243;54.298;10.172;2023-02-13T16:22:55;9.20;;;6.87;;
2462;SDS011;1243;54.298;10.172;2023-02-13T16:28:01;8.53;;;6.23;;
2462;SDS011;1243;54.298;10.172;2023-02-13T16:33:09;7.47;;;6.03;;
2462;SDS011;1243;54.298;10.172;2023-02-13T16:43:43;6.87;;;6.20;;
2462;SDS011;1243;54.298;10.172;2023-02-13T16:48:44;7.80;;;6.83;;
2462;SDS011;1243;54.298;10.172;2023-02-13T17:02:23;10.27;;;7.37;;
2462;SDS011;1243;54.298;10.172;2023-02-13T17:05:12;9.00;;;8.20;;
2462;SDS011;1243;54.298;10.172;2023-02-13T17:07:47;14.93;;;7.43;;
2462;SDS011;1243;54.298;10.172;2023-02-13T17:10:30;13.10;;;7.30;;
2462;SDS011;1243;54.298;10.172;2023-02-13T17:13:20;8.43;;;7.67;;
2462;SDS011;1243;54.298;10.172;2023-02-13T17:15:47;7.83;;;6.83;;
2462;SDS011;1243;54.298;10.172;2023-02-13T17:18:13;9.00;;;6.37;;
2462;SDS011;1243;54.298;10.172;2023-02-13T17:20:40;9.37;;;7.40;;
2462;SDS011;1243;54.298;10.172;2023-02-13T17:23:12;11.10;;;6.73;;
2462;SDS011;1243;54.298;10.172;2023-02-13T17:25:41;13.20;;;7.83;;
2462;SDS011;1243;54.298;10.172;2023-02-13T17:28:16;9.07;;;6.43;;
2462;SDS011;1243;54.298;10.172;2023-02-13T17:30:45;11.60;;;7.43;;
2462;SDS011;1243;54.298;10.172;2023-02-13T17:33:16;9.47;;;6.97;;
2462;SDS011;1243;54.298;10.172;2023-02-13T17:35:45;9.00;;;7.87;;
2462;SDS011;1243;54.298;10.172;2023-02-13T17:38:11;10.93;;;7.80;;
2462;SDS011;1243;54.298;10.172;2023-02-13T17:40:37;10.67;;;7.50;;
2462;SDS011;1243;54.298;10.172;2023-02-13T17:43:05;8.60;;;7.63;;
2462;SDS011;1243;54.298;10.172;2023-02-13T17:45:32;9.67;;;8.13;;
2462;SDS011;1243;54.298;10.172;2023-02-13T17:47:58;8.17;;;7.37;;
2462;SDS011;1243;54.298;10.172;2023-02-13T17:50:25;13.20;;;8.57;;
2462;SDS011;1243;54.298;10.172;2023-02-13T17:52:53;10.50;;;7.13;;
2462;SDS011;1243;54.298;10.172;2023-02-13T17:55:20;9.97;;;7.97;;
2462;SDS011;1243;54.298;10.172;2023-02-13T17:57:48;14.30;;;8.43;;
2462;SDS011;1243;54.298;10.172;2023-02-13T18:00:16;10.43;;;8.37;;
2462;SDS011;1243;54.298;10.172;2023-02-13T18:02:44;8.87;;;7.97;;
2462;SDS011;1243;54.298;10.172;2023-02-13T18:05:11;13.03;;;8.23;;
2462;SDS011;1243;54.298;10.172;2023-02-13T18:07:44;9.47;;;8.57;;
2462;SDS011;1243;54.298;10.172;2023-02-13T18:10:24;11.00;;;8.97;;